sensor_id;sensor_type;location;lat;lon;timestamp;P1;durP1;ratioP1;P2;durP2;ratioP2
39032;SDS011;24794;51.982;5.878;2023-12-14T00:00:06;11.70;;;7.93;;
39032;SDS011;24794;51.982;5.878;2023-12-14T00:01:08;12.48;;;8.65;;
39032;SDS011;24794;51.982;5.878;2023-12-14T00:02:10;10.75;;;8.05;;
39032;SDS011;24794;51.982;5.878;2023-12-14T00:03:10;12.07;;;8.80;;
39032;SDS011;24794;51.982;5.878;2023-12-14T00:04:11;11.80;;;8.13;;
39032;SDS011;24794;51.982;5.878;2023-12-14T00:05:12;12.40;;;8.70;;
39032;SDS011;24794;51.982;5.878;2023-12-14T00:06:12;11.27;;;8.15;;
39032;SDS011;24794;51.982;5.878;2023-12-14T00:07:13;11.85;;;8.57;;
39032;SDS011;24794;51.982;5.878;2023-12-14T00:08:15;12.38;;;8.68;;
39032;SDS011;24794;51.982;5.878;2023-12-14T00:09:15;11.77;;;8.10;;
39032;SDS011;24794;51.982;5.878;2023-12-14T00:10:16;13.88;;;7.85;;
39032;SDS011;24794;51.982;5.878;2023-12-14T00:11:18;11.52;;;8.43;;
39032;SDS011;24794;51.982;5.878;2023-12-14T00:12:18;12.88;;;8.40;;
39032;SDS011;24794;51.982;5.878;2023-12-14T00:13:19;13.27;;;8.18;;
39032;SDS011;24794;51.982;5.878;2023-12-14T00:14:19;13.85;;;9.13;;
39032;SDS011;24794;51.982;5.878;2023-12-14T00:15:20;11.20;;;7.70;;
39032;SDS011;24794;51.982;5.878;2023-12-14T00:16:20;9.68;;;7.00;;
39032;SDS011;24794;51.982;5.878;2023-12-14T00:17:21;10.35;;;7.57;;
39032;SDS011;24794;51.982;5.878;2023-12-14T00:18:21;11.63;;;8.13;;
39032;SDS011;24794;51.982;5.878;2023-12-14T00:19:23;11.88;;;8.23;;
39032;SDS011;24794;51.982;5.878;2023-12-14T00:20:23;14.57;;;9.75;;
39032;SDS011;24794;51.982;5.878;2023-12-14T00:21:24;12.45;;;8.55;;
39032;SDS011;24794;51.982;5.878;2023-12-14T00:22:24;13.75;;;9.60;;
39032;SDS011;24794;51.982;5.878;2023-12-14T00:23:25;12.98;;;9.10;;
39032;SDS011;24794;51.982;5.878;2023-12-14T00:24:26;11.57;;;8.00;;
39032;SDS011;24794;51.982;5.878;2023-12-14T00:25:26;14.38;;;9.15;;
39032;SDS011;24794;51.982;5.878;2023-12-14T00:26:27;14.90;;;10.77;;
39032;SDS011;24794;51.982;5.878;2023-12-14T00:27:27;15.48;;;10.40;;
39032;SDS011;24794;51.982;5.878;2023-12-14T00:28:28;14.82;;;9.68;;
39032;SDS011;24794;51.982;5.878;2023-12-14T00:29:28;15.35;;;9.55;;
39032;SDS011;24794;51.982;5.878;2023-12-14T00:30:29;17.40;;;10.68;;
39032;SDS011;24794;51.982;5.878;2023-12-14T00:31:30;12.70;;;8.63;;
39032;SDS011;24794;51.982;5.878;2023-12-14T00:32:30;12.48;;;8.73;;
39032;SDS011;24794;51.982;5.878;2023-12-14T00:33:31;18.02;;;9.40;;
39032;SDS011;24794;51.982;5.878;2023-12-14T00:34:32;12.50;;;8.65;;
39032;SDS011;24794;51.982;5.878;2023-12-14T00:35:32;15.07;;;8.88;;
39032;SDS011;24794;51.982;5.878;2023-12-14T00:36:33;11.95;;;7.75;;
39032;SDS011;24794;51.982;5.878;2023-12-14T00:37:33;14.90;;;9.40;;
39032;SDS011;24794;51.982;5.878;2023-12-14T00:38:34;12.55;;;8.68;;
39032;SDS011;24794;51.982;5.878;2023-12-14T00:39:34;13.60;;;8.55;;
39032;SDS011;24794;51.982;5.878;2023-12-14T00:40:35;11.45;;;7.22;;
39032;SDS011;24794;51.982;5.878;2023-12-14T00:41:36;13.43;;;8.45;;
39032;SDS011;24794;51.982;5.878;2023-12-14T00:42:37;11.98;;;8.25;;
39032;SDS011;24794;51.982;5.878;2023-12-14T00:43:37;11.73;;;8.38;;
39032;SDS011;24794;51.982;5.878;2023-12-14T00:44:38;13.98;;;9.10;;
39032;SDS011;24794;51.982;5.878;2023-12-14T00:45:38;14.25;;;9.00;;
39032;SDS011;24794;51.982;5.878;2023-12-14T00:46:41;12.43;;;8.65;;
39032;SDS011;24794;51.982;5.878;2023-12-14T00:47:42;12.27;;;8.50;;
39032;SDS011;24794;51.982;5.878;2023-12-14T00:48:43;11.93;;;8.80;;
39032;SDS011;24794;51.982;5.878;2023-12-14T00:49:43;14.63;;;8.95;;
39032;SDS011;24794;51.982;5.878;2023-12-14T00:50:44;12.07;;;8.55;;
39032;SDS011;24794;51.982;5.878;2023-12-14T00:51:44;11.48;;;8.35;;
39032;SDS011;24794;51.982;5.878;2023-12-14T00:52:45;13.13;;;8.95;;
39032;SDS011;24794;51.982;5.878;2023-12-14T00:53:45;13.23;;;8.73;;
39032;SDS011;24794;51.982;5.878;2023-12-14T00:54:46;11.80;;;7.90;;
39032;SDS011;24794;51.982;5.878;2023-12-14T00:55:46;13.43;;;8.30;;
39032;SDS011;24794;51.982;5.878;2023-12-14T00:56:48;12.13;;;8.30;;
39032;SDS011;24794;51.982;5.878;2023-12-14T00:57:48;14.10;;;9.35;;
39032;SDS011;24794;51.982;5.878;2023-12-14T00:58:49;12.48;;;8.55;;
39032;SDS011;24794;51.982;5.878;2023-12-14T00:59:49;12.35;;;9.10;;
39032;SDS011;24794;51.982;5.878;2023-12-14T01:00:50;13.88;;;8.73;;
39032;SDS011;24794;51.982;5.878;2023-12-14T01:01:50;10.63;;;8.07;;
39032;SDS011;24794;51.982;5.878;2023-12-14T01:02:51;12.20;;;8.65;;
39032;SDS011;24794;51.982;5.878;2023-12-14T01:03:51;12.07;;;8.23;;
39032;SDS011;24794;51.982;5.878;2023-12-14T01:04:52;12.27;;;8.50;;
39032;SDS011;24794;51.982;5.878;2023-12-14T01:05:52;11.80;;;8.05;;
39032;SDS011;24794;51.982;5.878;2023-12-14T01:06:53;11.85;;;8.48;;
39032;SDS011;24794;51.982;5.878;2023-12-14T01:07:53;12.50;;;8.20;;
39032;SDS011;24794;51.982;5.878;2023-12-14T01:08:54;11.73;;;8.48;;
39032;SDS011;24794;51.982;5.878;2023-12-14T01:09:54;10.63;;;8.10;;
39032;SDS011;24794;51.982;5.878;2023-12-14T01:10:55;11.80;;;7.47;;
39032;SDS011;24794;51.982;5.878;2023-12-14T01:11:55;13.50;;;9.35;;
39032;SDS011;24794;51.982;5.878;2023-12-14T01:12:56;10.98;;;8.40;;
39032;SDS011;24794;51.982;5.878;2023-12-14T01:13:57;12.05;;;8.57;;
39032;SDS011;24794;51.982;5.878;2023-12-14T01:14:57;14.13;;;9.45;;
39032;SDS011;24794;51.982;5.878;2023-12-14T01:15:58;13.23;;;8.70;;
39032;SDS011;24794;51.982;5.878;2023-12-14T01:16:58;12.73;;;9.48;;
39032;SDS011;24794;51.982;5.878;2023-12-14T01:17:59;11.27;;;8.93;;
39032;SDS011;24794;51.982;5.878;2023-12-14T01:18:59;11.68;;;8.55;;
39032;SDS011;24794;51.982;5.878;2023-12-14T01:20:00;11.05;;;8.32;;
39032;SDS011;24794;51.982;5.878;2023-12-14T01:21:00;13.68;;;9.02;;
39032;SDS011;24794;51.982;5.878;2023-12-14T01:22:01;10.98;;;7.93;;
39032;SDS011;24794;51.982;5.878;2023-12-14T01:23:02;9.20;;;7.32;;
39032;SDS011;24794;51.982;5.878;2023-12-14T01:24:02;11.73;;;7.80;;
39032;SDS011;24794;51.982;5.878;2023-12-14T01:25:03;10.05;;;7.60;;
39032;SDS011;24794;51.982;5.878;2023-12-14T01:26:04;10.30;;;7.68;;
39032;SDS011;24794;51.982;5.878;2023-12-14T01:27:04;9.32;;;7.28;;
39032;SDS011;24794;51.982;5.878;2023-12-14T01:28:05;10.75;;;7.68;;
39032;SDS011;24794;51.982;5.878;2023-12-14T01:29:05;9.75;;;7.20;;
39032;SDS011;24794;51.982;5.878;2023-12-14T01:30:06;10.48;;;7.80;;
39032;SDS011;24794;51.982;5.878;2023-12-14T01:31:07;10.02;;;7.38;;
39032;SDS011;24794;51.982;5.878;2023-12-14T01:32:08;11.27;;;7.88;;
39032;SDS011;24794;51.982;5.878;2023-12-14T01:33:08;10.65;;;8.35;;
39032;SDS011;24794;51.982;5.878;2023-12-14T01:34:09;11.43;;;7.70;;
39032;SDS011;24794;51.982;5.878;2023-12-14T01:35:11;10.45;;;8.07;;
39032;SDS011;24794;51.982;5.878;2023-12-14T01:36:12;10.77;;;7.82;;
39032;SDS011;24794;51.982;5.878;2023-12-14T01:37:21;10.90;;;8.32;;
39032;SDS011;24794;51.982;5.878;2023-12-14T01:38:21;10.15;;;8.05;;
39032;SDS011;24794;51.982;5.878;2023-12-14T01:39:22;12.57;;;8.43;;
39032;SDS011;24794;51.982;5.878;2023-12-14T01:40:22;10.02;;;7.85;;
39032;SDS011;24794;51.982;5.878;2023-12-14T01:41:23;10.30;;;8.30;;
39032;SDS011;24794;51.982;5.878;2023-12-14T01:42:23;12.95;;;8.65;;
39032;SDS011;24794;51.982;5.878;2023-12-14T01:43:24;11.00;;;8.52;;
39032;SDS011;24794;51.982;5.878;2023-12-14T01:44:25;11.18;;;8.52;;
39032;SDS011;24794;51.982;5.878;2023-12-14T01:45:25;11.85;;;8.15;;
39032;SDS011;24794;51.982;5.878;2023-12-14T01:46:26;12.48;;;9.73;;
39032;SDS011;24794;51.982;5.878;2023-12-14T01:47:26;11.63;;;9.13;;
39032;SDS011;24794;51.982;5.878;2023-12-14T01:48:27;13.70;;;9.68;;
39032;SDS011;24794;51.982;5.878;2023-12-14T01:49:27;13.90;;;8.80;;
39032;SDS011;24794;51.982;5.878;2023-12-14T01:50:28;13.25;;;9.23;;
39032;SDS011;24794;51.982;5.878;2023-12-14T01:51:28;12.00;;;7.93;;
39032;SDS011;24794;51.982;5.878;2023-12-14T01:52:29;11.38;;;8.60;;
39032;SDS011;24794;51.982;5.878;2023-12-14T01:53:29;11.32;;;8.32;;
39032;SDS011;24794;51.982;5.878;2023-12-14T01:54:30;11.35;;;8.80;;
39032;SDS011;24794;51.982;5.878;2023-12-14T01:55:31;11.43;;;8.32;;
39032;SDS011;24794;51.982;5.878;2023-12-14T01:56:31;11.13;;;8.13;;
39032;SDS011;24794;51.982;5.878;2023-12-14T01:57:32;10.68;;;7.63;;
39032;SDS011;24794;51.982;5.878;2023-12-14T01:58:32;11.07;;;8.52;;
39032;SDS011;24794;51.982;5.878;2023-12-14T01:59:33;12.05;;;9.05;;
39032;SDS011;24794;51.982;5.878;2023-12-14T02:01:42;11.48;;;8.68;;
39032;SDS011;24794;51.982;5.878;2023-12-14T02:02:51;10.30;;;8.05;;
39032;SDS011;24794;51.982;5.878;2023-12-14T02:03:52;12.48;;;8.98;;
39032;SDS011;24794;51.982;5.878;2023-12-14T02:04:54;11.95;;;8.88;;
39032;SDS011;24794;51.982;5.878;2023-12-14T02:05:54;12.85;;;10.02;;
39032;SDS011;24794;51.982;5.878;2023-12-14T02:06:55;11.55;;;9.23;;
39032;SDS011;24794;51.982;5.878;2023-12-14T02:07:56;10.57;;;8.63;;
39032;SDS011;24794;51.982;5.878;2023-12-14T02:08:57;12.15;;;8.32;;
39032;SDS011;24794;51.982;5.878;2023-12-14T02:09:58;10.73;;;8.27;;
39032;SDS011;24794;51.982;5.878;2023-12-14T02:10:58;11.55;;;9.10;;
39032;SDS011;24794;51.982;5.878;2023-12-14T02:11:59;12.00;;;8.77;;
39032;SDS011;24794;51.982;5.878;2023-12-14T02:13:02;10.40;;;8.05;;
39032;SDS011;24794;51.982;5.878;2023-12-14T02:14:06;12.30;;;8.90;;
39032;SDS011;24794;51.982;5.878;2023-12-14T02:15:09;10.50;;;8.10;;
39032;SDS011;24794;51.982;5.878;2023-12-14T02:16:09;9.32;;;7.40;;
39032;SDS011;24794;51.982;5.878;2023-12-14T02:17:10;11.27;;;8.68;;
39032;SDS011;24794;51.982;5.878;2023-12-14T02:18:11;9.43;;;7.15;;
39032;SDS011;24794;51.982;5.878;2023-12-14T02:19:11;10.52;;;8.25;;
39032;SDS011;24794;51.982;5.878;2023-12-14T02:20:12;11.50;;;8.18;;
39032;SDS011;24794;51.982;5.878;2023-12-14T02:21:12;10.30;;;7.97;;
39032;SDS011;24794;51.982;5.878;2023-12-14T02:22:13;10.50;;;8.23;;
39032;SDS011;24794;51.982;5.878;2023-12-14T02:23:13;12.38;;;8.80;;
39032;SDS011;24794;51.982;5.878;2023-12-14T02:24:14;11.20;;;8.23;;
39032;SDS011;24794;51.982;5.878;2023-12-14T02:25:14;9.52;;;7.78;;
39032;SDS011;24794;51.982;5.878;2023-12-14T02:26:15;13.45;;;9.82;;
39032;SDS011;24794;51.982;5.878;2023-12-14T02:27:15;11.90;;;8.90;;
39032;SDS011;24794;51.982;5.878;2023-12-14T02:28:16;12.18;;;8.80;;
39032;SDS011;24794;51.982;5.878;2023-12-14T02:29:16;13.20;;;8.63;;
39032;SDS011;24794;51.982;5.878;2023-12-14T02:30:17;11.32;;;9.07;;
39032;SDS011;24794;51.982;5.878;2023-12-14T02:31:19;10.38;;;8.57;;
39032;SDS011;24794;51.982;5.878;2023-12-14T02:32:19;10.70;;;8.77;;
39032;SDS011;24794;51.982;5.878;2023-12-14T02:33:20;12.00;;;8.80;;
39032;SDS011;24794;51.982;5.878;2023-12-14T02:34:21;13.15;;;9.45;;
39032;SDS011;24794;51.982;5.878;2023-12-14T02:35:21;11.85;;;8.85;;
39032;SDS011;24794;51.982;5.878;2023-12-14T02:36:22;11.45;;;8.45;;
39032;SDS011;24794;51.982;5.878;2023-12-14T02:37:23;12.13;;;8.93;;
39032;SDS011;24794;51.982;5.878;2023-12-14T02:38:23;10.48;;;8.07;;
39032;SDS011;24794;51.982;5.878;2023-12-14T02:39:24;11.30;;;8.48;;
39032;SDS011;24794;51.982;5.878;2023-12-14T02:40:24;11.80;;;9.05;;
39032;SDS011;24794;51.982;5.878;2023-12-14T02:41:25;10.95;;;8.15;;
39032;SDS011;24794;51.982;5.878;2023-12-14T02:42:25;10.25;;;8.15;;
39032;SDS011;24794;51.982;5.878;2023-12-14T02:43:26;11.77;;;8.73;;
39032;SDS011;24794;51.982;5.878;2023-12-14T02:44:27;11.52;;;8.60;;
39032;SDS011;24794;51.982;5.878;2023-12-14T02:45:27;14.15;;;9.80;;
39032;SDS011;24794;51.982;5.878;2023-12-14T02:46:28;13.98;;;9.98;;
39032;SDS011;24794;51.982;5.878;2023-12-14T02:47:29;11.30;;;8.32;;
39032;SDS011;24794;51.982;5.878;2023-12-14T02:48:29;11.13;;;8.20;;
39032;SDS011;24794;51.982;5.878;2023-12-14T02:49:30;11.90;;;8.43;;
39032;SDS011;24794;51.982;5.878;2023-12-14T02:50:30;12.73;;;9.00;;
39032;SDS011;24794;51.982;5.878;2023-12-14T02:51:31;11.57;;;8.60;;
39032;SDS011;24794;51.982;5.878;2023-12-14T02:52:31;13.00;;;8.23;;
39032;SDS011;24794;51.982;5.878;2023-12-14T02:53:32;9.80;;;7.43;;
39032;SDS011;24794;51.982;5.878;2023-12-14T02:54:33;11.10;;;8.48;;
39032;SDS011;24794;51.982;5.878;2023-12-14T02:55:33;10.75;;;8.13;;
39032;SDS011;24794;51.982;5.878;2023-12-14T02:56:34;13.02;;;9.23;;
39032;SDS011;24794;51.982;5.878;2023-12-14T02:57:34;11.95;;;8.93;;
39032;SDS011;24794;51.982;5.878;2023-12-14T02:58:35;10.57;;;8.30;;
39032;SDS011;24794;51.982;5.878;2023-12-14T02:59:35;11.18;;;8.38;;
39032;SDS011;24794;51.982;5.878;2023-12-14T03:00:36;11.05;;;7.80;;
39032;SDS011;24794;51.982;5.878;2023-12-14T03:01:36;11.80;;;7.95;;
39032;SDS011;24794;51.982;5.878;2023-12-14T03:02:37;11.95;;;8.50;;
39032;SDS011;24794;51.982;5.878;2023-12-14T03:03:38;10.05;;;8.45;;
39032;SDS011;24794;51.982;5.878;2023-12-14T03:04:39;10.85;;;7.63;;
39032;SDS011;24794;51.982;5.878;2023-12-14T03:05:40;10.55;;;7.80;;
39032;SDS011;24794;51.982;5.878;2023-12-14T03:06:40;10.30;;;7.55;;
39032;SDS011;24794;51.982;5.878;2023-12-14T03:07:41;9.82;;;7.60;;
39032;SDS011;24794;51.982;5.878;2023-12-14T03:08:41;11.90;;;7.68;;
39032;SDS011;24794;51.982;5.878;2023-12-14T03:09:42;9.52;;;7.13;;
39032;SDS011;24794;51.982;5.878;2023-12-14T03:10:44;11.50;;;7.95;;
39032;SDS011;24794;51.982;5.878;2023-12-14T03:11:45;8.45;;;6.90;;
39032;SDS011;24794;51.982;5.878;2023-12-14T03:12:45;9.00;;;7.25;;
39032;SDS011;24794;51.982;5.878;2023-12-14T03:13:46;11.57;;;7.85;;
39032;SDS011;24794;51.982;5.878;2023-12-14T03:14:46;10.43;;;7.38;;
39032;SDS011;24794;51.982;5.878;2023-12-14T03:15:47;9.65;;;7.10;;
39032;SDS011;24794;51.982;5.878;2023-12-14T03:16:49;9.95;;;7.65;;
39032;SDS011;24794;51.982;5.878;2023-12-14T03:17:49;10.77;;;7.97;;
39032;SDS011;24794;51.982;5.878;2023-12-14T03:18:50;10.00;;;7.63;;
39032;SDS011;24794;51.982;5.878;2023-12-14T03:19:53;10.55;;;7.95;;
39032;SDS011;24794;51.982;5.878;2023-12-14T03:20:53;10.88;;;7.75;;
39032;SDS011;24794;51.982;5.878;2023-12-14T03:21:54;9.25;;;7.22;;
39032;SDS011;24794;51.982;5.878;2023-12-14T03:22:54;10.23;;;7.93;;
39032;SDS011;24794;51.982;5.878;2023-12-14T03:23:55;8.48;;;6.97;;
39032;SDS011;24794;51.982;5.878;2023-12-14T03:24:55;9.45;;;7.30;;
39032;SDS011;24794;51.982;5.878;2023-12-14T03:25:56;9.52;;;6.90;;
39032;SDS011;24794;51.982;5.878;2023-12-14T03:26:57;9.55;;;7.78;;
39032;SDS011;24794;51.982;5.878;2023-12-14T03:27:57;10.75;;;7.72;;
39032;SDS011;24794;51.982;5.878;2023-12-14T03:28:58;10.18;;;7.70;;
39032;SDS011;24794;51.982;5.878;2023-12-14T03:29:58;8.57;;;6.93;;
39032;SDS011;24794;51.982;5.878;2023-12-14T03:30:59;9.98;;;7.22;;
39032;SDS011;24794;51.982;5.878;2023-12-14T03:32:00;9.30;;;7.07;;
39032;SDS011;24794;51.982;5.878;2023-12-14T03:33:01;8.50;;;7.40;;
39032;SDS011;24794;51.982;5.878;2023-12-14T03:34:01;9.25;;;7.20;;
39032;SDS011;24794;51.982;5.878;2023-12-14T03:35:02;7.63;;;6.43;;
39032;SDS011;24794;51.982;5.878;2023-12-14T03:36:03;7.75;;;6.50;;
39032;SDS011;24794;51.982;5.878;2023-12-14T03:37:04;8.88;;;7.15;;
39032;SDS011;24794;51.982;5.878;2023-12-14T03:38:05;7.72;;;6.22;;
39032;SDS011;24794;51.982;5.878;2023-12-14T03:39:05;9.30;;;6.95;;
39032;SDS011;24794;51.982;5.878;2023-12-14T03:40:06;8.63;;;6.95;;
39032;SDS011;24794;51.982;5.878;2023-12-14T03:41:07;9.93;;;6.75;;
39032;SDS011;24794;51.982;5.878;2023-12-14T03:42:07;8.95;;;7.38;;
39032;SDS011;24794;51.982;5.878;2023-12-14T03:43:08;8.55;;;6.72;;
39032;SDS011;24794;51.982;5.878;2023-12-14T03:44:08;8.70;;;7.20;;
39032;SDS011;24794;51.982;5.878;2023-12-14T03:45:09;8.73;;;7.13;;
39032;SDS011;24794;51.982;5.878;2023-12-14T03:46:10;9.13;;;6.93;;
39032;SDS011;24794;51.982;5.878;2023-12-14T03:47:11;8.05;;;6.45;;
39032;SDS011;24794;51.982;5.878;2023-12-14T03:48:11;9.25;;;7.30;;
39032;SDS011;24794;51.982;5.878;2023-12-14T03:49:12;7.75;;;6.55;;
39032;SDS011;24794;51.982;5.878;2023-12-14T03:50:13;8.23;;;6.63;;
39032;SDS011;24794;51.982;5.878;2023-12-14T03:51:13;7.85;;;6.63;;
39032;SDS011;24794;51.982;5.878;2023-12-14T03:52:17;8.30;;;6.90;;
39032;SDS011;24794;51.982;5.878;2023-12-14T03:53:18;7.97;;;6.45;;
39032;SDS011;24794;51.982;5.878;2023-12-14T03:54:18;9.40;;;6.80;;
39032;SDS011;24794;51.982;5.878;2023-12-14T03:55:19;8.43;;;7.47;;
39032;SDS011;24794;51.982;5.878;2023-12-14T03:56:20;8.40;;;7.30;;
39032;SDS011;24794;51.982;5.878;2023-12-14T03:57:20;7.90;;;6.57;;
39032;SDS011;24794;51.982;5.878;2023-12-14T03:58:21;9.82;;;7.40;;
39032;SDS011;24794;51.982;5.878;2023-12-14T03:59:21;9.05;;;6.60;;
39032;SDS011;24794;51.982;5.878;2023-12-14T04:00:22;8.40;;;6.53;;
39032;SDS011;24794;51.982;5.878;2023-12-14T04:01:22;8.68;;;6.55;;
39032;SDS011;24794;51.982;5.878;2023-12-14T04:02:23;8.25;;;6.68;;
39032;SDS011;24794;51.982;5.878;2023-12-14T04:03:23;8.90;;;7.00;;
39032;SDS011;24794;51.982;5.878;2023-12-14T04:04:24;8.40;;;6.85;;
39032;SDS011;24794;51.982;5.878;2023-12-14T04:05:24;10.95;;;6.80;;
39032;SDS011;24794;51.982;5.878;2023-12-14T04:06:25;8.18;;;6.82;;
39032;SDS011;24794;51.982;5.878;2023-12-14T04:07:26;11.07;;;7.57;;
39032;SDS011;24794;51.982;5.878;2023-12-14T04:08:26;11.45;;;7.63;;
39032;SDS011;24794;51.982;5.878;2023-12-14T04:09:27;8.48;;;7.00;;
39032;SDS011;24794;51.982;5.878;2023-12-14T04:10:27;8.70;;;6.78;;
39032;SDS011;24794;51.982;5.878;2023-12-14T04:11:28;10.57;;;6.60;;
39032;SDS011;24794;51.982;5.878;2023-12-14T04:12:28;8.38;;;6.80;;
39032;SDS011;24794;51.982;5.878;2023-12-14T04:13:29;9.63;;;6.68;;
39032;SDS011;24794;51.982;5.878;2023-12-14T04:14:29;8.18;;;6.75;;
39032;SDS011;24794;51.982;5.878;2023-12-14T04:15:30;8.27;;;6.60;;
39032;SDS011;24794;51.982;5.878;2023-12-14T04:16:30;8.85;;;6.55;;
39032;SDS011;24794;51.982;5.878;2023-12-14T04:17:31;7.53;;;6.45;;
39032;SDS011;24794;51.982;5.878;2023-12-14T04:18:32;8.75;;;6.93;;
39032;SDS011;24794;51.982;5.878;2023-12-14T04:19:32;9.23;;;7.03;;
39032;SDS011;24794;51.982;5.878;2023-12-14T04:20:33;8.32;;;6.65;;
39032;SDS011;24794;51.982;5.878;2023-12-14T04:21:33;10.32;;;7.25;;
39032;SDS011;24794;51.982;5.878;2023-12-14T04:22:34;9.55;;;7.10;;
39032;SDS011;24794;51.982;5.878;2023-12-14T04:23:34;7.93;;;6.63;;
39032;SDS011;24794;51.982;5.878;2023-12-14T04:24:35;8.95;;;7.53;;
39032;SDS011;24794;51.982;5.878;2023-12-14T04:25:35;9.63;;;7.60;;
39032;SDS011;24794;51.982;5.878;2023-12-14T04:26:36;9.95;;;7.45;;
39032;SDS011;24794;51.982;5.878;2023-12-14T04:27:37;8.75;;;6.90;;
39032;SDS011;24794;51.982;5.878;2023-12-14T04:28:37;9.45;;;7.18;;
39032;SDS011;24794;51.982;5.878;2023-12-14T04:29:38;8.70;;;6.82;;
39032;SDS011;24794;51.982;5.878;2023-12-14T04:30:38;7.80;;;6.82;;
39032;SDS011;24794;51.982;5.878;2023-12-14T04:31:39;9.43;;;7.25;;
39032;SDS011;24794;51.982;5.878;2023-12-14T04:32:39;9.20;;;7.40;;
39032;SDS011;24794;51.982;5.878;2023-12-14T04:33:40;9.40;;;7.22;;
39032;SDS011;24794;51.982;5.878;2023-12-14T04:34:40;9.23;;;7.13;;
39032;SDS011;24794;51.982;5.878;2023-12-14T04:35:41;9.23;;;7.15;;
39032;SDS011;24794;51.982;5.878;2023-12-14T04:36:42;8.52;;;6.85;;
39032;SDS011;24794;51.982;5.878;2023-12-14T04:37:42;10.02;;;8.35;;
39032;SDS011;24794;51.982;5.878;2023-12-14T04:38:43;9.57;;;7.30;;
39032;SDS011;24794;51.982;5.878;2023-12-14T04:39:46;8.57;;;7.07;;
39032;SDS011;24794;51.982;5.878;2023-12-14T04:40:46;9.48;;;7.63;;
39032;SDS011;24794;51.982;5.878;2023-12-14T04:41:47;9.48;;;7.45;;
39032;SDS011;24794;51.982;5.878;2023-12-14T04:42:48;9.38;;;8.05;;
39032;SDS011;24794;51.982;5.878;2023-12-14T04:43:48;8.68;;;7.38;;
39032;SDS011;24794;51.982;5.878;2023-12-14T04:44:49;9.13;;;7.35;;
39032;SDS011;24794;51.982;5.878;2023-12-14T04:45:49;9.88;;;7.68;;
39032;SDS011;24794;51.982;5.878;2023-12-14T04:46:50;10.77;;;7.70;;
39032;SDS011;24794;51.982;5.878;2023-12-14T04:47:51;8.85;;;7.25;;
39032;SDS011;24794;51.982;5.878;2023-12-14T04:48:51;9.85;;;7.63;;
39032;SDS011;24794;51.982;5.878;2023-12-14T04:49:52;7.47;;;6.63;;
39032;SDS011;24794;51.982;5.878;2023-12-14T04:50:53;7.43;;;6.30;;
39032;SDS011;24794;51.982;5.878;2023-12-14T04:51:53;8.23;;;6.40;;
39032;SDS011;24794;51.982;5.878;2023-12-14T04:52:54;8.20;;;6.50;;
39032;SDS011;24794;51.982;5.878;2023-12-14T04:53:54;8.93;;;6.95;;
39032;SDS011;24794;51.982;5.878;2023-12-14T04:54:55;8.32;;;6.72;;
39032;SDS011;24794;51.982;5.878;2023-12-14T04:55:55;8.30;;;6.55;;
39032;SDS011;24794;51.982;5.878;2023-12-14T04:56:56;8.30;;;6.50;;
39032;SDS011;24794;51.982;5.878;2023-12-14T04:57:56;8.50;;;6.28;;
39032;SDS011;24794;51.982;5.878;2023-12-14T04:58:57;9.10;;;7.05;;
39032;SDS011;24794;51.982;5.878;2023-12-14T04:59:58;9.00;;;6.90;;
39032;SDS011;24794;51.982;5.878;2023-12-14T05:00:59;8.70;;;7.20;;
39032;SDS011;24794;51.982;5.878;2023-12-14T05:01:59;9.23;;;7.20;;
39032;SDS011;24794;51.982;5.878;2023-12-14T05:03:00;10.02;;;7.40;;
39032;SDS011;24794;51.982;5.878;2023-12-14T05:04:00;9.57;;;7.28;;
39032;SDS011;24794;51.982;5.878;2023-12-14T05:05:01;9.15;;;7.25;;
39032;SDS011;24794;51.982;5.878;2023-12-14T05:06:02;9.63;;;7.00;;
39032;SDS011;24794;51.982;5.878;2023-12-14T05:07:03;9.13;;;6.63;;
39032;SDS011;24794;51.982;5.878;2023-12-14T05:08:03;10.48;;;7.18;;
39032;SDS011;24794;51.982;5.878;2023-12-14T05:09:04;9.80;;;7.88;;
39032;SDS011;24794;51.982;5.878;2023-12-14T05:10:06;10.40;;;7.10;;
39032;SDS011;24794;51.982;5.878;2023-12-14T05:11:07;10.80;;;7.93;;
39032;SDS011;24794;51.982;5.878;2023-12-14T05:12:08;13.00;;;7.82;;
39032;SDS011;24794;51.982;5.878;2023-12-14T05:13:08;11.40;;;7.45;;
39032;SDS011;24794;51.982;5.878;2023-12-14T05:14:09;10.32;;;7.78;;
39032;SDS011;24794;51.982;5.878;2023-12-14T05:15:10;9.05;;;6.95;;
39032;SDS011;24794;51.982;5.878;2023-12-14T05:16:14;9.35;;;7.57;;
39032;SDS011;24794;51.982;5.878;2023-12-14T05:17:15;8.98;;;7.32;;
39032;SDS011;24794;51.982;5.878;2023-12-14T05:18:15;8.30;;;6.95;;
39032;SDS011;24794;51.982;5.878;2023-12-14T05:19:16;9.80;;;7.13;;
39032;SDS011;24794;51.982;5.878;2023-12-14T05:20:16;9.68;;;6.40;;
39032;SDS011;24794;51.982;5.878;2023-12-14T05:21:17;8.32;;;6.85;;
39032;SDS011;24794;51.982;5.878;2023-12-14T05:22:18;9.30;;;7.38;;
39032;SDS011;24794;51.982;5.878;2023-12-14T05:23:18;9.52;;;6.57;;
39032;SDS011;24794;51.982;5.878;2023-12-14T05:24:19;9.90;;;7.97;;
39032;SDS011;24794;51.982;5.878;2023-12-14T05:25:20;8.63;;;7.03;;
39032;SDS011;24794;51.982;5.878;2023-12-14T05:26:20;11.10;;;7.70;;
39032;SDS011;24794;51.982;5.878;2023-12-14T05:27:21;10.40;;;7.78;;
39032;SDS011;24794;51.982;5.878;2023-12-14T05:28:21;9.70;;;7.63;;
39032;SDS011;24794;51.982;5.878;2023-12-14T05:29:22;9.10;;;6.75;;
39032;SDS011;24794;51.982;5.878;2023-12-14T05:30:23;8.80;;;6.75;;
39032;SDS011;24794;51.982;5.878;2023-12-14T05:31:24;9.38;;;7.25;;
39032;SDS011;24794;51.982;5.878;2023-12-14T05:32:24;7.80;;;6.32;;
39032;SDS011;24794;51.982;5.878;2023-12-14T05:33:25;9.27;;;6.93;;
39032;SDS011;24794;51.982;5.878;2023-12-14T05:34:25;7.78;;;6.32;;
39032;SDS011;24794;51.982;5.878;2023-12-14T05:35:26;9.20;;;7.22;;
39032;SDS011;24794;51.982;5.878;2023-12-14T05:36:27;8.57;;;6.32;;
39032;SDS011;24794;51.982;5.878;2023-12-14T05:37:27;8.23;;;5.95;;
39032;SDS011;24794;51.982;5.878;2023-12-14T05:38:28;7.28;;;5.70;;
39032;SDS011;24794;51.982;5.878;2023-12-14T05:39:28;8.85;;;6.38;;
39032;SDS011;24794;51.982;5.878;2023-12-14T05:40:29;8.93;;;6.38;;
39032;SDS011;24794;51.982;5.878;2023-12-14T05:41:30;9.27;;;6.70;;
39032;SDS011;24794;51.982;5.878;2023-12-14T05:42:30;13.48;;;6.55;;
39032;SDS011;24794;51.982;5.878;2023-12-14T05:43:31;7.70;;;6.10;;
39032;SDS011;24794;51.982;5.878;2023-12-14T05:44:32;7.68;;;5.80;;
39032;SDS011;24794;51.982;5.878;2023-12-14T05:45:32;7.47;;;5.38;;
39032;SDS011;24794;51.982;5.878;2023-12-14T05:46:33;7.13;;;5.28;;
39032;SDS011;24794;51.982;5.878;2023-12-14T05:47:33;8.73;;;6.38;;
39032;SDS011;24794;51.982;5.878;2023-12-14T05:48:34;8.40;;;6.20;;
39032;SDS011;24794;51.982;5.878;2023-12-14T05:49:36;8.82;;;6.03;;
39032;SDS011;24794;51.982;5.878;2023-12-14T05:50:37;7.30;;;5.88;;
39032;SDS011;24794;51.982;5.878;2023-12-14T05:51:37;8.70;;;5.45;;
39032;SDS011;24794;51.982;5.878;2023-12-14T05:52:39;7.57;;;5.53;;
39032;SDS011;24794;51.982;5.878;2023-12-14T05:53:42;9.43;;;6.70;;
39032;SDS011;24794;51.982;5.878;2023-12-14T05:54:43;7.65;;;5.55;;
39032;SDS011;24794;51.982;5.878;2023-12-14T05:55:43;8.20;;;6.38;;
39032;SDS011;24794;51.982;5.878;2023-12-14T05:56:44;8.50;;;6.20;;
39032;SDS011;24794;51.982;5.878;2023-12-14T05:57:44;8.48;;;6.00;;
39032;SDS011;24794;51.982;5.878;2023-12-14T05:58:45;8.60;;;5.70;;
39032;SDS011;24794;51.982;5.878;2023-12-14T05:59:46;8.60;;;6.13;;
39032;SDS011;24794;51.982;5.878;2023-12-14T06:00:46;7.80;;;6.53;;
39032;SDS011;24794;51.982;5.878;2023-12-14T06:01:47;8.45;;;6.40;;
39032;SDS011;24794;51.982;5.878;2023-12-14T06:02:48;8.02;;;6.20;;
39032;SDS011;24794;51.982;5.878;2023-12-14T06:03:48;7.60;;;5.97;;